sensor_id;sensor_type;location;lat;lon;timestamp;temperature;humidity
58363;DHT22;54977;51.510;7.522;2022-08-19T00:03:46;18.80;65.50
58363;DHT22;54977;51.510;7.522;2022-08-19T00:08:48;18.80;65.30
58363;DHT22;54977;51.510;7.522;2022-08-19T00:13:52;18.70;65.70
58363;DHT22;54977;51.510;7.522;2022-08-19T00:18:56;18.70;66.10
58363;DHT22;54977;51.510;7.522;2022-08-19T00:23:58;18.70;66.00
58363;DHT22;54977;51.510;7.522;2022-08-19T00:29:00;18.60;66.20
58363;DHT22;54977;51.510;7.522;2022-08-19T00:34:04;18.60;66.20
58363;DHT22;54977;51.510;7.522;2022-08-19T00:39:06;18.60;66.20
58363;DHT22;54977;51.510;7.522;2022-08-19T00:44:11;18.60;65.80
58363;DHT22;54977;51.510;7.522;2022-08-19T00:49:24;18.60;65.90
58363;DHT22;54977;51.510;7.522;2022-08-19T00:54:27;18.50;66.10
58363;DHT22;54977;51.510;7.522;2022-08-19T00:59:32;18.50;66.30
58363;DHT22;54977;51.510;7.522;2022-08-19T01:04:38;18.50;66.40
58363;DHT22;54977;51.510;7.522;2022-08-19T01:09:39;18.40;66.50
58363;DHT22;54977;51.510;7.522;2022-08-19T01:14:41;18.40;66.60
58363;DHT22;54977;51.510;7.522;2022-08-19T01:19:45;18.40;66.60
58363;DHT22;54977;51.510;7.522;2022-08-19T01:24:50;18.40;67.60
58363;DHT22;54977;51.510;7.522;2022-08-19T01:29:53;18.40;66.90
58363;DHT22;54977;51.510;7.522;2022-08-19T01:34:55;18.30;66.90
58363;DHT22;54977;51.510;7.522;2022-08-19T01:39:58;18.30;67.10
58363;DHT22;54977;51.510;7.522;2022-08-19T01:45:00;18.30;67.70
58363;DHT22;54977;51.510;7.522;2022-08-19T01:50:04;18.30;67.40
58363;DHT22;54977;51.510;7.522;2022-08-19T01:55:11;18.30;67.30
58363;DHT22;54977;51.510;7.522;2022-08-19T02:00:16;18.20;67.10
58363;DHT22;54977;51.510;7.522;2022-08-19T02:05:19;18.20;66.60
58363;DHT22;54977;51.510;7.522;2022-08-19T02:10:23;18.10;66.60
58363;DHT22;54977;51.510;7.522;2022-08-19T02:15:25;18.10;67.00
58363;DHT22;54977;51.510;7.522;2022-08-19T02:20:27;18.10;66.60
58363;DHT22;54977;51.510;7.522;2022-08-19T02:25:30;18.00;67.40
58363;DHT22;54977;51.510;7.522;2022-08-19T02:30:33;18.00;67.60
58363;DHT22;54977;51.510;7.522;2022-08-19T02:35:35;18.00;67.60
58363;DHT22;54977;51.510;7.522;2022-08-19T02:40:38;18.00;67.80
58363;DHT22;54977;51.510;7.522;2022-08-19T02:45:40;18.10;67.50
58363;DHT22;54977;51.510;7.522;2022-08-19T02:50:42;18.00;67.30
58363;DHT22;54977;51.510;7.522;2022-08-19T02:55:46;18.00;67.40
58363;DHT22;54977;51.510;7.522;2022-08-19T03:00:50;18.00;67.70
58363;DHT22;54977;51.510;7.522;2022-08-19T03:06:01;18.00;67.90
58363;DHT22;54977;51.510;7.522;2022-08-19T03:11:05;18.00;67.90
58363;DHT22;54977;51.510;7.522;2022-08-19T03:16:07;18.00;67.60
58363;DHT22;54977;51.510;7.522;2022-08-19T03:21:14;18.00;67.60
58363;DHT22;54977;51.510;7.522;2022-08-19T03:26:18;18.00;67.30
58363;DHT22;54977;51.510;7.522;2022-08-19T03:31:21;17.90;67.80
58363;DHT22;54977;51.510;7.522;2022-08-19T03:36:25;17.90;67.80
58363;DHT22;54977;51.510;7.522;2022-08-19T03:41:31;17.90;68.10
58363;DHT22;54977;51.510;7.522;2022-08-19T03:46:33;17.90;68.20
58363;DHT22;54977;51.510;7.522;2022-08-19T03:51:38;17.90;68.20
58363;DHT22;54977;51.510;7.522;2022-08-19T03:56:43;17.80;68.00
58363;DHT22;54977;51.510;7.522;2022-08-19T04:01:46;17.80;67.90
58363;DHT22;54977;51.510;7.522;2022-08-19T04:06:48;17.80;68.20
58363;DHT22;54977;51.510;7.522;2022-08-19T04:11:53;17.70;68.70
58363;DHT22;54977;51.510;7.522;2022-08-19T04:16:55;17.60;68.80
58363;DHT22;54977;51.510;7.522;2022-08-19T04:21:57;17.70;68.70
58363;DHT22;54977;51.510;7.522;2022-08-19T04:27:01;17.70;68.50
58363;DHT22;54977;51.510;7.522;2022-08-19T04:32:03;17.70;68.30
58363;DHT22;54977;51.510;7.522;2022-08-19T04:37:06;17.70;68.40
58363;DHT22;54977;51.510;7.522;2022-08-19T04:42:13;17.70;68.60
58363;DHT22;54977;51.510;7.522;2022-08-19T04:47:33;17.80;68.40
58363;DHT22;54977;51.510;7.522;2022-08-19T04:52:35;17.80;68.40
58363;DHT22;54977;51.510;7.522;2022-08-19T04:57:38;17.90;68.40
58363;DHT22;54977;51.510;7.522;2022-08-19T05:02:41;17.90;68.50
58363;DHT22;54977;51.510;7.522;2022-08-19T05:07:42;17.90;68.40
58363;DHT22;54977;51.510;7.522;2022-08-19T05:12:46;17.90;68.30
58363;DHT22;54977;51.510;7.522;2022-08-19T05:17:48;17.90;68.30
58363;DHT22;54977;51.510;7.522;2022-08-19T05:23:03;18.00;68.60
58363;DHT22;54977;51.510;7.522;2022-08-19T05:28:07;18.10;67.80
58363;DHT22;54977;51.510;7.522;2022-08-19T05:33:09;18.20;68.00
58363;DHT22;54977;51.510;7.522;2022-08-19T05:38:12;18.30;67.80
58363;DHT22;54977;51.510;7.522;2022-08-19T05:43:15;18.40;67.50
58363;DHT22;54977;51.510;7.522;2022-08-19T05:48:17;18.50;67.30
58363;DHT22;54977;51.510;7.522;2022-08-19T05:53:21;18.60;67.10
58363;DHT22;54977;51.510;7.522;2022-08-19T05:58:24;18.70;66.70
58363;DHT22;54977;51.510;7.522;2022-08-19T06:03:26;18.80;66.70
58363;DHT22;54977;51.510;7.522;2022-08-19T06:08:28;18.90;66.60
58363;DHT22;54977;51.510;7.522;2022-08-19T06:13:32;19.00;66.10
58363;DHT22;54977;51.510;7.522;2022-08-19T06:18:34;19.10;65.60
58363;DHT22;54977;51.510;7.522;2022-08-19T06:23:35;19.20;65.80
58363;DHT22;54977;51.510;7.522;2022-08-19T06:28:39;19.40;65.10
58363;DHT22;54977;51.510;7.522;2022-08-19T06:33:44;19.50;64.60
58363;DHT22;54977;51.510;7.522;2022-08-19T06:38:46;19.80;64.40
58363;DHT22;54977;51.510;7.522;2022-08-19T06:43:49;20.00;63.80
58363;DHT22;54977;51.510;7.522;2022-08-19T06:48:51;20.10;63.20
58363;DHT22;54977;51.510;7.522;2022-08-19T06:53:55;20.50;63.20
58363;DHT22;54977;51.510;7.522;2022-08-19T06:58:58;20.70;62.30
58363;DHT22;54977;51.510;7.522;2022-08-19T07:04:01;20.80;62.00
58363;DHT22;54977;51.510;7.522;2022-08-19T07:09:03;21.00;61.70
58363;DHT22;54977;51.510;7.522;2022-08-19T07:14:07;21.30;61.20
58363;DHT22;54977;51.510;7.522;2022-08-19T07:19:09;21.50;60.70
58363;DHT22;54977;51.510;7.522;2022-08-19T07:24:11;21.80;60.10
58363;DHT22;54977;51.510;7.522;2022-08-19T07:29:14;22.10;58.60
58363;DHT22;54977;51.510;7.522;2022-08-19T07:34:17;22.40;58.30
58363;DHT22;54977;51.510;7.522;2022-08-19T07:39:22;22.60;57.70
58363;DHT22;54977;51.510;7.522;2022-08-19T07:44:26;23.00;57.20
58363;DHT22;54977;51.510;7.522;2022-08-19T07:49:28;23.40;56.10
58363;DHT22;54977;51.510;7.522;2022-08-19T07:54:32;23.50;55.70
58363;DHT22;54977;51.510;7.522;2022-08-19T07:59:37;23.80;55.30
58363;DHT22;54977;51.510;7.522;2022-08-19T08:04:39;24.00;54.60
58363;DHT22;54977;51.510;7.522;2022-08-19T08:09:59;24.00;54.30
58363;DHT22;54977;51.510;7.522;2022-08-19T08:15:06;24.10;53.80
58363;DHT22;54977;51.510;7.522;2022-08-19T08:20:10;23.90;53.90
58363;DHT22;54977;51.510;7.522;2022-08-19T08:25:15;23.80;54.20
58363;DHT22;54977;51.510;7.522;2022-08-19T08:30:21;23.90;54.00
58363;DHT22;54977;51.510;7.522;2022-08-19T08:35:24;24.00;54.20
58363;DHT22;54977;51.510;7.522;2022-08-19T08:40:29;24.00;54.20
58363;DHT22;54977;51.510;7.522;2022-08-19T08:45:36;24.10;54.20
58363;DHT22;54977;51.510;7.522;2022-08-19T08:50:43;24.30;53.50
58363;DHT22;54977;51.510;7.522;2022-08-19T08:55:46;24.40;53.20
58363;DHT22;54977;51.510;7.522;2022-08-19T09:00:50;24.50;53.20
58363;DHT22;54977;51.510;7.522;2022-08-19T09:05:59;24.80;52.00
58363;DHT22;54977;51.510;7.522;2022-08-19T09:11:06;25.20;50.30
58363;DHT22;54977;51.510;7.522;2022-08-19T09:16:14;25.00;50.30
58363;DHT22;54977;51.510;7.522;2022-08-19T09:21:17;25.30;49.60
58363;DHT22;54977;51.510;7.522;2022-08-19T09:26:22;25.30;48.90
58363;DHT22;54977;51.510;7.522;2022-08-19T09:31:27;25.10;49.00
58363;DHT22;54977;51.510;7.522;2022-08-19T09:36:30;25.60;49.20
58363;DHT22;54977;51.510;7.522;2022-08-19T09:41:34;26.10;48.10
58363;DHT22;54977;51.510;7.522;2022-08-19T09:46:37;26.20;47.00
58363;DHT22;54977;51.510;7.522;2022-08-19T09:51:39;26.40;45.50
58363;DHT22;54977;51.510;7.522;2022-08-19T09:56:41;26.50;45.50
58363;DHT22;54977;51.510;7.522;2022-08-19T10:01:44;26.40;45.10
58363;DHT22;54977;51.510;7.522;2022-08-19T10:06:47;26.60;43.60
58363;DHT22;54977;51.510;7.522;2022-08-19T10:11:50;27.00;44.10
58363;DHT22;54977;51.510;7.522;2022-08-19T10:16:53;26.70;41.40
58363;DHT22;54977;51.510;7.522;2022-08-19T10:21:55;27.20;42.60
58363;DHT22;54977;51.510;7.522;2022-08-19T10:26:57;27.30;42.70
58363;DHT22;54977;51.510;7.522;2022-08-19T10:32:02;27.50;43.00
58363;DHT22;54977;51.510;7.522;2022-08-19T10:37:06;27.10;42.80
58363;DHT22;54977;51.510;7.522;2022-08-19T10:42:08;26.70;42.60
58363;DHT22;54977;51.510;7.522;2022-08-19T10:47:12;26.60;42.10
58363;DHT22;54977;51.510;7.522;2022-08-19T10:52:14;26.30;41.60
58363;DHT22;54977;51.510;7.522;2022-08-19T10:57:35;26.30;40.90
58363;DHT22;54977;51.510;7.522;2022-08-19T11:02:38;26.50;41.50
58363;DHT22;54977;51.510;7.522;2022-08-19T11:07:41;26.80;42.00
58363;DHT22;54977;51.510;7.522;2022-08-19T11:12:45;27.20;41.40
58363;DHT22;54977;51.510;7.522;2022-08-19T11:17:51;27.30;41.10
58363;DHT22;54977;51.510;7.522;2022-08-19T11:22:54;27.30;40.60
58363;DHT22;54977;51.510;7.522;2022-08-19T11:27:56;27.50;41.20
58363;DHT22;54977;51.510;7.522;2022-08-19T11:33:00;27.40;40.50
58363;DHT22;54977;51.510;7.522;2022-08-19T11:38:02;27.10;40.70
58363;DHT22;54977;51.510;7.522;2022-08-19T11:43:04;27.30;40.50
58363;DHT22;54977;51.510;7.522;2022-08-19T11:48:08;27.60;39.50
58363;DHT22;54977;51.510;7.522;2022-08-19T11:53:09;27.80;39.30
58363;DHT22;54977;51.510;7.522;2022-08-19T11:58:12;27.90;38.90
58363;DHT22;54977;51.510;7.522;2022-08-19T12:03:16;28.00;38.30
58363;DHT22;54977;51.510;7.522;2022-08-19T12:08:19;28.20;38.40
58363;DHT22;54977;51.510;7.522;2022-08-19T12:13:21;27.80;36.10
58363;DHT22;54977;51.510;7.522;2022-08-19T12:18:24;27.90;38.40
58363;DHT22;54977;51.510;7.522;2022-08-19T12:23:26;28.30;37.20
58363;DHT22;54977;51.510;7.522;2022-08-19T12:28:28;29.00;37.30
58363;DHT22;54977;51.510;7.522;2022-08-19T12:33:31;30.50;34.70
58363;DHT22;54977;51.510;7.522;2022-08-19T12:38:34;30.30;33.40
58363;DHT22;54977;51.510;7.522;2022-08-19T12:43:36;30.90;33.90
58363;DHT22;54977;51.510;7.522;2022-08-19T12:48:40;31.80;33.40
58363;DHT22;54977;51.510;7.522;2022-08-19T12:53:43;32.20;32.30
58363;DHT22;54977;51.510;7.522;2022-08-19T12:58:45;33.70;29.30
58363;DHT22;54977;51.510;7.522;2022-08-19T13:03:49;35.60;27.50
58363;DHT22;54977;51.510;7.522;2022-08-19T13:08:53;36.80;27.10
58363;DHT22;54977;51.510;7.522;2022-08-19T13:13:55;37.90;26.80
58363;DHT22;54977;51.510;7.522;2022-08-19T13:18:58;38.20;25.80
58363;DHT22;54977;51.510;7.522;2022-08-19T13:24:03;38.30;25.20
58363;DHT22;54977;51.510;7.522;2022-08-19T13:29:05;37.60;25.90
58363;DHT22;54977;51.510;7.522;2022-08-19T13:34:31;37.80;25.40
58363;DHT22;54977;51.510;7.522;2022-08-19T13:39:34;38.60;24.50
58363;DHT22;54977;51.510;7.522;2022-08-19T13:44:36;36.50;24.40
58363;DHT22;54977;51.510;7.522;2022-08-19T13:49:40;37.40;25.00
58363;DHT22;54977;51.510;7.522;2022-08-19T13:54:42;37.30;24.90
58363;DHT22;54977;51.510;7.522;2022-08-19T13:59:44;37.30;24.60
58363;DHT22;54977;51.510;7.522;2022-08-19T14:04:47;36.10;25.60
58363;DHT22;54977;51.510;7.522;2022-08-19T14:09:49;36.30;25.40
58363;DHT22;54977;51.510;7.522;2022-08-19T14:14:51;36.40;25.50
58363;DHT22;54977;51.510;7.522;2022-08-19T14:19:57;36.00;25.80
58363;DHT22;54977;51.510;7.522;2022-08-19T14:25:01;36.80;25.00
58363;DHT22;54977;51.510;7.522;2022-08-19T14:30:04;37.10;24.20
58363;DHT22;54977;51.510;7.522;2022-08-19T14:35:09;35.50;26.60
58363;DHT22;54977;51.510;7.522;2022-08-19T14:40:14;36.10;25.70
58363;DHT22;54977;51.510;7.522;2022-08-19T14:45:16;37.50;24.90
58363;DHT22;54977;51.510;7.522;2022-08-19T14:50:19;38.00;24.50
58363;DHT22;54977;51.510;7.522;2022-08-19T14:55:21;38.00;24.10
58363;DHT22;54977;51.510;7.522;2022-08-19T15:00:23;38.00;24.50
58363;DHT22;54977;51.510;7.522;2022-08-19T15:05:27;37.50;23.90
58363;DHT22;54977;51.510;7.522;2022-08-19T15:10:29;37.70;25.20
58363;DHT22;54977;51.510;7.522;2022-08-19T15:15:31;38.20;24.10
58363;DHT22;54977;51.510;7.522;2022-08-19T15:20:35;38.50;23.60
58363;DHT22;54977;51.510;7.522;2022-08-19T15:25:36;37.60;24.30
58363;DHT22;54977;51.510;7.522;2022-08-19T15:30:39;37.60;24.00
58363;DHT22;54977;51.510;7.522;2022-08-19T15:35:43;36.70;24.60
58363;DHT22;54977;51.510;7.522;2022-08-19T15:40:46;34.90;25.70
58363;DHT22;54977;51.510;7.522;2022-08-19T15:45:48;33.60;26.50
58363;DHT22;54977;51.510;7.522;2022-08-19T15:50:51;32.50;27.90
58363;DHT22;54977;51.510;7.522;2022-08-19T15:55:53;31.80;28.30
58363;DHT22;54977;51.510;7.522;2022-08-19T16:00:56;31.00;29.00
58363;DHT22;54977;51.510;7.522;2022-08-19T16:06:17;30.50;29.40
58363;DHT22;54977;51.510;7.522;2022-08-19T16:11:32;30.00;30.00
58363;DHT22;54977;51.510;7.522;2022-08-19T16:16:35;29.70;30.60
58363;DHT22;54977;51.510;7.522;2022-08-19T16:21:39;29.40;30.90
58363;DHT22;54977;51.510;7.522;2022-08-19T16:26:41;29.10;31.80
58363;DHT22;54977;51.510;7.522;2022-08-19T16:31:44;29.10;31.70
58363;DHT22;54977;51.510;7.522;2022-08-19T16:36:48;29.10;31.80
58363;DHT22;54977;51.510;7.522;2022-08-19T16:41:50;28.90;31.70
58363;DHT22;54977;51.510;7.522;2022-08-19T16:46:52;28.70;32.50
58363;DHT22;54977;51.510;7.522;2022-08-19T16:51:56;28.70;32.80
58363;DHT22;54977;51.510;7.522;2022-08-19T16:56:58;28.50;33.20
58363;DHT22;54977;51.510;7.522;2022-08-19T17:02:00;28.50;33.80
58363;DHT22;54977;51.510;7.522;2022-08-19T17:07:04;28.60;33.50
58363;DHT22;54977;51.510;7.522;2022-08-19T17:12:06;28.50;33.50
58363;DHT22;54977;51.510;7.522;2022-08-19T17:17:08;28.40;33.40
58363;DHT22;54977;51.510;7.522;2022-08-19T17:22:13;28.30;33.90
58363;DHT22;54977;51.510;7.522;2022-08-19T17:27:15;28.30;34.00
58363;DHT22;54977;51.510;7.522;2022-08-19T17:32:19;27.90;34.10
58363;DHT22;54977;51.510;7.522;2022-08-19T17:37:22;27.50;34.60
58363;DHT22;54977;51.510;7.522;2022-08-19T17:42:24;27.30;34.60
58363;DHT22;54977;51.510;7.522;2022-08-19T17:47:27;27.10;35.30
58363;DHT22;54977;51.510;7.522;2022-08-19T17:52:30;27.00;35.10
58363;DHT22;54977;51.510;7.522;2022-08-19T17:57:32;26.60;35.40
58363;DHT22;54977;51.510;7.522;2022-08-19T18:02:43;26.40;35.90
58363;DHT22;54977;51.510;7.522;2022-08-19T18:07:48;26.10;35.90
58363;DHT22;54977;51.510;7.522;2022-08-19T18:12:52;26.00;36.40
58363;DHT22;54977;51.510;7.522;2022-08-19T18:17:55;25.80;37.00
58363;DHT22;54977;51.510;7.522;2022-08-19T18:22:58;25.70;37.70
58363;DHT22;54977;51.510;7.522;2022-08-19T18:28:00;25.50;38.40
58363;DHT22;54977;51.510;7.522;2022-08-19T18:33:04;25.30;38.70
58363;DHT22;54977;51.510;7.522;2022-08-19T18:38:11;25.20;39.30
58363;DHT22;54977;51.510;7.522;2022-08-19T18:43:31;25.00;39.50
58363;DHT22;54977;51.510;7.522;2022-08-19T18:48:51;24.90;39.90
58363;DHT22;54977;51.510;7.522;2022-08-19T18:54:06;24.70;40.30
58363;DHT22;54977;51.510;7.522;2022-08-19T18:59:08;24.60;40.60
58363;DHT22;54977;51.510;7.522;2022-08-19T19:04:10;24.50;40.70
58363;DHT22;54977;51.510;7.522;2022-08-19T19:09:16;24.40;41.10
58363;DHT22;54977;51.510;7.522;2022-08-19T19:14:20;24.30;41.60
58363;DHT22;54977;51.510;7.522;2022-08-19T19:19:23;24.20;42.10
58363;DHT22;54977;51.510;7.522;2022-08-19T19:24:28;24.00;42.40
58363;DHT22;54977;51.510;7.522;2022-08-19T19:29:32;23.90;42.40
58363;DHT22;54977;51.510;7.522;2022-08-19T19:34:37;23.60;43.20
58363;DHT22;54977;51.510;7.522;2022-08-19T19:39:41;23.60;44.10
58363;DHT22;54977;51.510;7.522;2022-08-19T19:44:43;23.60;44.30
58363;DHT22;54977;51.510;7.522;2022-08-19T19:49:48;23.60;44.70
58363;DHT22;54977;51.510;7.522;2022-08-19T19:54:53;23.60;45.70
58363;DHT22;54977;51.510;7.522;2022-08-19T19:59:56;23.40;46.50
58363;DHT22;54977;51.510;7.522;2022-08-19T20:04:58;23.40;47.00
58363;DHT22;54977;51.510;7.522;2022-08-19T20:10:02;23.40;47.80
58363;DHT22;54977;51.510;7.522;2022-08-19T20:15:05;23.30;48.00
58363;DHT22;54977;51.510;7.522;2022-08-19T20:20:08;23.20;49.70
58363;DHT22;54977;51.510;7.522;2022-08-19T20:25:13;23.00;50.50
58363;DHT22;54977;51.510;7.522;2022-08-19T20:30:17;23.10;51.20
58363;DHT22;54977;51.510;7.522;2022-08-19T20:35:21;23.00;51.50
58363;DHT22;54977;51.510;7.522;2022-08-19T20:40:25;22.90;52.00
58363;DHT22;54977;51.510;7.522;2022-08-19T20:45:27;22.90;52.20
58363;DHT22;54977;51.510;7.522;2022-08-19T20:50:29;22.90;52.50
58363;DHT22;54977;51.510;7.522;2022-08-19T20:55:32;22.90;52.90
58363;DHT22;54977;51.510;7.522;2022-08-19T21:00:34;22.90;53.20
58363;DHT22;54977;51.510;7.522;2022-08-19T21:05:36;22.90;53.10
58363;DHT22;54977;51.510;7.522;2022-08-19T21:10:40;22.90;53.20
58363;DHT22;54977;51.510;7.522;2022-08-19T21:15:42;22.90;53.20
58363;DHT22;54977;51.510;7.522;2022-08-19T21:20:45;22.80;53.70
58363;DHT22;54977;51.510;7.522;2022-08-19T21:25:50;22.70;54.10
58363;DHT22;54977;51.510;7.522;2022-08-19T21:30:53;22.80;54.00
58363;DHT22;54977;51.510;7.522;2022-08-19T21:35:56;22.80;54.00
58363;DHT22;54977;51.510;7.522;2022-08-19T21:41:00;22.90;53.90
58363;DHT22;54977;51.510;7.522;2022-08-19T21:46:02;22.90;54.20
58363;DHT22;54977;51.510;7.522;2022-08-19T21:51:05;22.90;54.20
58363;DHT22;54977;51.510;7.522;2022-08-19T21:56:08;22.90;54.40
58363;DHT22;54977;51.510;7.522;2022-08-19T22:01:10;22.90;54.60
58363;DHT22;54977;51.510;7.522;2022-08-19T22:06:12;22.90;54.80
58363;DHT22;54977;51.510;7.522;2022-08-19T22:11:17;22.90;54.80
58363;DHT22;54977;51.510;7.522;2022-08-19T22:16:19;22.90;54.80
58363;DHT22;54977;51.510;7.522;2022-08-19T22:21:21;22.90;54.70
58363;DHT22;54977;51.510;7.522;2022-08-19T22:26:25;22.90;54.80
58363;DHT22;54977;51.510;7.522;2022-08-19T22:31:26;22.90;54.90
58363;DHT22;54977;51.510;7.522;2022-08-19T22:36:28;22.90;55.10
58363;DHT22;54977;51.510;7.522;2022-08-19T22:41:32;22.90;54.90
58363;DHT22;54977;51.510;7.522;2022-08-19T22:46:34;22.90;54.70
58363;DHT22;54977;51.510;7.522;2022-08-19T22:51:36;22.90;54.70
58363;DHT22;54977;51.510;7.522;2022-08-19T22:56:57;22.90;54.70
58363;DHT22;54977;51.510;7.522;2022-08-19T23:01:59;22.80;54.80
58363;DHT22;54977;51.510;7.522;2022-08-19T23:07:01;22.90;54.90
58363;DHT22;54977;51.510;7.522;2022-08-19T23:12:06;22.80;55.10
58363;DHT22;54977;51.510;7.522;2022-08-19T23:17:09;22.70;55.20
58363;DHT22;54977;51.510;7.522;2022-08-19T23:22:14;22.70;55.40
58363;DHT22;54977;51.510;7.522;2022-08-19T23:27:18;22.70;55.60
58363;DHT22;54977;51.510;7.522;2022-08-19T23:32:37;22.70;55.50
58363;DHT22;54977;51.510;7.522;2022-08-19T23:37:39;22.60;55.50
58363;DHT22;54977;51.510;7.522;2022-08-19T23:42:42;22.60;55.60
58363;DHT22;54977;51.510;7.522;2022-08-19T23:47:46;22.60;55.70
58363;DHT22;54977;51.510;7.522;2022-08-19T23:52:49;22.70;55.70
58363;DHT22;54977;51.510;7.522;2022-08-19T23:57:53;22.70;55.80
